sensor_id;sensor_type;location;lat;lon;timestamp;pressure;altitude;pressure_sealevel;temperature;humidity
21300;BME280;10809;49.476;11.016;2022-07-17T00:01:21;99104.13;;;19.19;37.64
21300;BME280;10809;49.476;11.016;2022-07-17T00:03:51;99098.25;;;19.14;37.94
21300;BME280;10809;49.476;11.016;2022-07-17T00:06:21;99108.38;;;19.10;37.77
21300;BME280;10809;49.476;11.016;2022-07-17T00:08:52;99108.00;;;19.04;37.86
21300;BME280;10809;49.476;11.016;2022-07-17T00:11:22;99104.81;;;18.99;38.04
21300;BME280;10809;49.476;11.016;2022-07-17T00:13:53;99110.66;;;18.93;38.14
21300;BME280;10809;49.476;11.016;2022-07-17T00:16:23;99116.38;;;18.88;37.91
21300;BME280;10809;49.476;11.016;2022-07-17T00:18:54;99124.75;;;18.84;38.25
21300;BME280;10809;49.476;11.016;2022-07-17T00:21:24;99132.31;;;18.79;38.08
21300;BME280;10809;49.476;11.016;2022-07-17T00:23:55;99124.47;;;18.76;38.18
21300;BME280;10809;49.476;11.016;2022-07-17T00:26:26;99129.22;;;18.72;38.25
21300;BME280;10809;49.476;11.016;2022-07-17T00:28:56;99132.00;;;18.71;38.43
21300;BME280;10809;49.476;11.016;2022-07-17T00:31:26;99128.59;;;18.69;38.35
21300;BME280;10809;49.476;11.016;2022-07-17T00:33:57;99130.50;;;18.67;38.39
21300;BME280;10809;49.476;11.016;2022-07-17T00:36:27;99125.38;;;18.64;38.41
21300;BME280;10809;49.476;11.016;2022-07-17T00:38:57;99132.81;;;18.60;38.44
21300;BME280;10809;49.476;11.016;2022-07-17T00:41:28;99132.19;;;18.57;38.67
21300;BME280;10809;49.476;11.016;2022-07-17T00:44:06;99141.41;;;18.53;38.20
21300;BME280;10809;49.476;11.016;2022-07-17T00:46:37;99143.50;;;18.49;38.63
21300;BME280;10809;49.476;11.016;2022-07-17T00:49:08;99143.72;;;18.46;38.93
21300;BME280;10809;49.476;11.016;2022-07-17T00:51:38;99142.09;;;18.44;38.88
21300;BME280;10809;49.476;11.016;2022-07-17T00:54:17;99142.44;;;18.39;38.50
21300;BME280;10809;49.476;11.016;2022-07-17T00:56:48;99144.41;;;18.37;38.84
21300;BME280;10809;49.476;11.016;2022-07-17T00:59:21;99141.09;;;18.34;38.93
21300;BME280;10809;49.476;11.016;2022-07-17T01:01:54;99143.13;;;18.30;38.91
21300;BME280;10809;49.476;11.016;2022-07-17T01:04:25;99147.88;;;18.27;39.34
21300;BME280;10809;49.476;11.016;2022-07-17T01:06:55;99144.44;;;18.25;39.26
21300;BME280;10809;49.476;11.016;2022-07-17T01:09:29;99142.00;;;18.22;39.14
21300;BME280;10809;49.476;11.016;2022-07-17T01:12:00;99143.19;;;18.18;39.30
21300;BME280;10809;49.476;11.016;2022-07-17T01:14:34;99145.22;;;18.14;39.38
21300;BME280;10809;49.476;11.016;2022-07-17T01:17:04;99148.13;;;18.11;39.55
21300;BME280;10809;49.476;11.016;2022-07-17T01:19:35;99144.81;;;18.07;39.68
21300;BME280;10809;49.476;11.016;2022-07-17T01:22:05;99140.66;;;18.03;39.63
21300;BME280;10809;49.476;11.016;2022-07-17T01:24:39;99146.25;;;18.00;39.35
21300;BME280;10809;49.476;11.016;2022-07-17T01:27:10;99152.75;;;17.96;39.40
21300;BME280;10809;49.476;11.016;2022-07-17T01:29:44;99154.81;;;17.93;39.51
21300;BME280;10809;49.476;11.016;2022-07-17T01:32:14;99157.81;;;17.88;39.59
21300;BME280;10809;49.476;11.016;2022-07-17T01:34:44;99153.63;;;17.84;39.85
21300;BME280;10809;49.476;11.016;2022-07-17T01:37:15;99159.31;;;17.80;39.77
21300;BME280;10809;49.476;11.016;2022-07-17T01:39:49;99158.69;;;17.76;39.84
21300;BME280;10809;49.476;11.016;2022-07-17T01:42:27;99160.81;;;17.71;40.10
21300;BME280;10809;49.476;11.016;2022-07-17T01:45:04;99165.53;;;17.68;39.78
21300;BME280;10809;49.476;11.016;2022-07-17T01:47:34;99155.03;;;17.65;40.31
21300;BME280;10809;49.476;11.016;2022-07-17T01:50:05;99158.81;;;17.62;40.46
21300;BME280;10809;49.476;11.016;2022-07-17T01:52:38;99158.25;;;17.57;40.51
21300;BME280;10809;49.476;11.016;2022-07-17T01:55:10;99165.56;;;17.55;40.61
21300;BME280;10809;49.476;11.016;2022-07-17T01:57:42;99160.41;;;17.52;40.50
21300;BME280;10809;49.476;11.016;2022-07-17T02:00:16;99158.03;;;17.48;40.71
21300;BME280;10809;49.476;11.016;2022-07-17T02:02:46;99148.41;;;17.45;40.44
21300;BME280;10809;49.476;11.016;2022-07-17T02:05:17;99150.44;;;17.42;40.52
21300;BME280;10809;49.476;11.016;2022-07-17T02:07:47;99145.28;;;17.39;40.89
21300;BME280;10809;49.476;11.016;2022-07-17T02:10:19;99140.16;;;17.36;40.78
21300;BME280;10809;49.476;11.016;2022-07-17T02:12:51;99142.09;;;17.34;41.00
21300;BME280;10809;49.476;11.016;2022-07-17T02:15:21;99137.81;;;17.31;40.84
21300;BME280;10809;49.476;11.016;2022-07-17T02:17:55;99143.38;;;17.28;40.72
21300;BME280;10809;49.476;11.016;2022-07-17T02:20:25;99142.63;;;17.26;41.01
21300;BME280;10809;49.476;11.016;2022-07-17T02:22:56;99149.03;;;17.24;41.21
21300;BME280;10809;49.476;11.016;2022-07-17T02:25:29;99135.88;;;17.21;40.97
21300;BME280;10809;49.476;11.016;2022-07-17T02:28:00;99138.66;;;17.19;41.62
21300;BME280;10809;49.476;11.016;2022-07-17T02:30:30;99142.31;;;17.18;41.69
21300;BME280;10809;49.476;11.016;2022-07-17T02:33:00;99133.63;;;17.15;41.65
21300;BME280;10809;49.476;11.016;2022-07-17T02:35:34;99134.78;;;17.11;41.11
21300;BME280;10809;49.476;11.016;2022-07-17T02:38:05;99143.88;;;17.08;41.46
21300;BME280;10809;49.476;11.016;2022-07-17T02:40:39;99145.03;;;17.04;41.43
21300;BME280;10809;49.476;11.016;2022-07-17T02:43:12;99146.22;;;17.00;41.49
21300;BME280;10809;49.476;11.016;2022-07-17T02:45:42;99148.22;;;16.97;41.48
21300;BME280;10809;49.476;11.016;2022-07-17T02:48:12;99145.88;;;16.92;41.81
21300;BME280;10809;49.476;11.016;2022-07-17T02:50:43;99148.75;;;16.89;41.66
21300;BME280;10809;49.476;11.016;2022-07-17T02:53:13;99146.41;;;16.85;41.77
21300;BME280;10809;49.476;11.016;2022-07-17T02:55:44;99142.13;;;16.82;41.75
21300;BME280;10809;49.476;11.016;2022-07-17T02:58:14;99149.47;;;16.79;41.62
21300;BME280;10809;49.476;11.016;2022-07-17T03:00:44;99157.72;;;16.76;41.94
21300;BME280;10809;49.476;11.016;2022-07-17T03:03:15;99148.81;;;16.75;41.83
21300;BME280;10809;49.476;11.016;2022-07-17T03:05:47;99152.56;;;16.73;42.00
21300;BME280;10809;49.476;11.016;2022-07-17T03:08:17;99149.03;;;16.72;42.07
21300;BME280;10809;49.476;11.016;2022-07-17T03:10:51;99150.88;;;16.72;42.02
21300;BME280;10809;49.476;11.016;2022-07-17T03:13:21;99146.47;;;16.71;42.13
21300;BME280;10809;49.476;11.016;2022-07-17T03:15:52;99147.53;;;16.68;42.14
21300;BME280;10809;49.476;11.016;2022-07-17T03:18:22;99153.94;;;16.66;41.76
21300;BME280;10809;49.476;11.016;2022-07-17T03:20:52;99157.66;;;16.63;42.00
21300;BME280;10809;49.476;11.016;2022-07-17T03:23:23;99161.50;;;16.59;41.84
21300;BME280;10809;49.476;11.016;2022-07-17T03:25:53;99157.34;;;16.55;42.28
21300;BME280;10809;49.476;11.016;2022-07-17T03:28:24;99156.78;;;16.50;42.11
21300;BME280;10809;49.476;11.016;2022-07-17T03:30:54;99160.59;;;16.46;42.17
21300;BME280;10809;49.476;11.016;2022-07-17T03:33:24;99160.78;;;16.43;42.23
21300;BME280;10809;49.476;11.016;2022-07-17T03:35:55;99158.22;;;16.41;42.46
21300;BME280;10809;49.476;11.016;2022-07-17T03:38:26;99160.25;;;16.38;42.62
21300;BME280;10809;49.476;11.016;2022-07-17T03:40:56;99152.34;;;16.36;42.79
21300;BME280;10809;49.476;11.016;2022-07-17T03:43:26;99158.63;;;16.35;42.47
21300;BME280;10809;49.476;11.016;2022-07-17T03:45:57;99163.13;;;16.35;42.61
21300;BME280;10809;49.476;11.016;2022-07-17T03:48:28;99165.81;;;16.35;42.89
21300;BME280;10809;49.476;11.016;2022-07-17T03:50:59;99165.91;;;16.33;42.88
21300;BME280;10809;49.476;11.016;2022-07-17T03:53:29;99161.41;;;16.34;42.54
21300;BME280;10809;49.476;11.016;2022-07-17T03:56:00;99169.53;;;16.32;42.49
21300;BME280;10809;49.476;11.016;2022-07-17T03:58:31;99166.94;;;16.31;42.56
21300;BME280;10809;49.476;11.016;2022-07-17T04:01:05;99175.06;;;16.29;42.44
21300;BME280;10809;49.476;11.016;2022-07-17T04:03:35;99178.72;;;16.28;42.27
21300;BME280;10809;49.476;11.016;2022-07-17T04:06:08;99180.56;;;16.26;42.50
21300;BME280;10809;49.476;11.016;2022-07-17T04:08:40;99173.63;;;16.24;42.67
21300;BME280;10809;49.476;11.016;2022-07-17T04:11:10;99179.06;;;16.22;42.72
21300;BME280;10809;49.476;11.016;2022-07-17T04:13:40;99179.25;;;16.19;42.74
21300;BME280;10809;49.476;11.016;2022-07-17T04:16:11;99175.94;;;16.16;42.75
21300;BME280;10809;49.476;11.016;2022-07-17T04:18:44;99180.53;;;16.14;42.53
21300;BME280;10809;49.476;11.016;2022-07-17T04:21:15;99178.06;;;16.11;42.55
21300;BME280;10809;49.476;11.016;2022-07-17T04:23:45;99171.06;;;16.08;42.85
21300;BME280;10809;49.476;11.016;2022-07-17T04:26:15;99173.94;;;16.05;43.03
21300;BME280;10809;49.476;11.016;2022-07-17T04:28:46;99175.88;;;16.03;43.05
21300;BME280;10809;49.476;11.016;2022-07-17T04:31:16;99176.91;;;16.01;43.28
21300;BME280;10809;49.476;11.016;2022-07-17T04:33:47;99172.72;;;15.97;43.19
21300;BME280;10809;49.476;11.016;2022-07-17T04:36:17;99172.81;;;15.95;43.22
21300;BME280;10809;49.476;11.016;2022-07-17T04:38:48;99174.63;;;15.95;43.29
21300;BME280;10809;49.476;11.016;2022-07-17T04:41:18;99171.97;;;15.95;43.52
21300;BME280;10809;49.476;11.016;2022-07-17T04:43:49;99168.41;;;15.94;43.45
21300;BME280;10809;49.476;11.016;2022-07-17T04:46:19;99169.19;;;15.96;43.41
21300;BME280;10809;49.476;11.016;2022-07-17T04:48:50;99171.88;;;15.96;43.61
21300;BME280;10809;49.476;11.016;2022-07-17T04:51:20;99166.41;;;15.98;43.72
21300;BME280;10809;49.476;11.016;2022-07-17T04:53:50;99174.34;;;15.99;43.67
21300;BME280;10809;49.476;11.016;2022-07-17T04:56:21;99172.44;;;16.01;43.60
21300;BME280;10809;49.476;11.016;2022-07-17T04:58:51;99176.72;;;16.04;43.56
21300;BME280;10809;49.476;11.016;2022-07-17T05:01:21;99173.94;;;16.05;43.65
21300;BME280;10809;49.476;11.016;2022-07-17T05:03:52;99176.41;;;16.08;43.78
21300;BME280;10809;49.476;11.016;2022-07-17T05:06:22;99179.00;;;16.10;43.43
21300;BME280;10809;49.476;11.016;2022-07-17T05:08:52;99182.44;;;16.12;43.53
21300;BME280;10809;49.476;11.016;2022-07-17T05:11:23;99180.53;;;16.14;43.26
21300;BME280;10809;49.476;11.016;2022-07-17T05:13:53;99174.22;;;16.15;43.11
21300;BME280;10809;49.476;11.016;2022-07-17T05:16:24;99181.16;;;16.17;43.47
21300;BME280;10809;49.476;11.016;2022-07-17T05:18:54;99174.78;;;16.20;43.38
21300;BME280;10809;49.476;11.016;2022-07-17T05:21:25;99182.63;;;16.23;43.89
21300;BME280;10809;49.476;11.016;2022-07-17T05:23:55;99175.31;;;16.25;43.73
21300;BME280;10809;49.476;11.016;2022-07-17T05:26:25;99188.44;;;16.29;43.65
21300;BME280;10809;49.476;11.016;2022-07-17T05:28:59;99178.41;;;16.33;43.67
21300;BME280;10809;49.476;11.016;2022-07-17T05:31:29;99179.19;;;16.35;43.70
21300;BME280;10809;49.476;11.016;2022-07-17T05:34:03;99178.09;;;16.37;43.57
21300;BME280;10809;49.476;11.016;2022-07-17T05:36:33;99175.22;;;16.40;43.33
21300;BME280;10809;49.476;11.016;2022-07-17T05:39:04;99181.25;;;16.44;43.39
21300;BME280;10809;49.476;11.016;2022-07-17T05:41:37;99176.63;;;16.46;43.30
21300;BME280;10809;49.476;11.016;2022-07-17T05:44:08;99182.75;;;16.48;42.92
21300;BME280;10809;49.476;11.016;2022-07-17T05:46:38;99183.72;;;16.47;42.85
21300;BME280;10809;49.476;11.016;2022-07-17T05:49:08;99190.88;;;16.47;43.16
21300;BME280;10809;49.476;11.016;2022-07-17T05:51:39;99193.44;;;16.48;43.20
21300;BME280;10809;49.476;11.016;2022-07-17T05:54:09;99193.44;;;16.48;43.53
21300;BME280;10809;49.476;11.016;2022-07-17T05:56:39;99197.72;;;16.51;42.98
21300;BME280;10809;49.476;11.016;2022-07-17T05:59:10;99200.31;;;16.52;43.08
21300;BME280;10809;49.476;11.016;2022-07-17T06:01:40;99199.34;;;16.53;43.21
21300;BME280;10809;49.476;11.016;2022-07-17T06:04:11;99202.81;;;16.55;43.05
21300;BME280;10809;49.476;11.016;2022-07-17T06:06:42;99206.22;;;16.57;43.32
21300;BME280;10809;49.476;11.016;2022-07-17T06:09:18;99203.44;;;16.59;43.37
21300;BME280;10809;49.476;11.016;2022-07-17T06:11:49;99209.44;;;16.62;43.86
21300;BME280;10809;49.476;11.016;2022-07-17T06:14:22;99209.25;;;16.65;43.34
21300;BME280;10809;49.476;11.016;2022-07-17T06:16:57;99214.19;;;16.71;43.18
21300;BME280;10809;49.476;11.016;2022-07-17T06:19:27;99207.56;;;16.77;43.12
21300;BME280;10809;49.476;11.016;2022-07-17T06:22:00;99212.50;;;16.83;43.08
21300;BME280;10809;49.476;11.016;2022-07-17T06:24:31;99215.44;;;16.92;43.41
21300;BME280;10809;49.476;11.016;2022-07-17T06:27:01;99218.16;;;17.05;43.03
21300;BME280;10809;49.476;11.016;2022-07-17T06:29:31;99221.84;;;17.16;43.13
21300;BME280;10809;49.476;11.016;2022-07-17T06:32:02;99209.97;;;17.33;43.13
21300;BME280;10809;49.476;11.016;2022-07-17T06:34:36;99214.72;;;17.54;43.29
21300;BME280;10809;49.476;11.016;2022-07-17T06:37:06;99221.91;;;17.79;42.88
21300;BME280;10809;49.476;11.016;2022-07-17T06:39:36;99211.19;;;18.04;42.57
21300;BME280;10809;49.476;11.016;2022-07-17T06:42:07;99221.22;;;18.26;42.37
21300;BME280;10809;49.476;11.016;2022-07-17T06:44:37;99213.47;;;18.46;42.23
21300;BME280;10809;49.476;11.016;2022-07-17T06:47:08;99220.78;;;18.68;41.78
21300;BME280;10809;49.476;11.016;2022-07-17T06:49:38;99219.22;;;18.89;41.66
21300;BME280;10809;49.476;11.016;2022-07-17T06:52:09;99229.22;;;19.10;41.38
21300;BME280;10809;49.476;11.016;2022-07-17T06:54:40;99216.06;;;19.29;40.98
21300;BME280;10809;49.476;11.016;2022-07-17T06:57:10;99211.00;;;19.48;40.96
21300;BME280;10809;49.476;11.016;2022-07-17T06:59:40;99220.38;;;19.66;40.32
21300;BME280;10809;49.476;11.016;2022-07-17T07:02:11;99215.38;;;19.84;40.29
21300;BME280;10809;49.476;11.016;2022-07-17T07:04:41;99209.38;;;20.03;39.69
21300;BME280;10809;49.476;11.016;2022-07-17T07:07:13;99209.03;;;20.18;39.51
21300;BME280;10809;49.476;11.016;2022-07-17T07:09:44;99215.03;;;20.33;39.64
21300;BME280;10809;49.476;11.016;2022-07-17T07:12:14;99207.53;;;20.47;39.02
21300;BME280;10809;49.476;11.016;2022-07-17T07:14:45;99213.88;;;20.57;38.40
21300;BME280;10809;49.476;11.016;2022-07-17T07:17:15;99211.44;;;20.65;38.80
21300;BME280;10809;49.476;11.016;2022-07-17T07:19:49;99211.63;;;20.73;38.77
21300;BME280;10809;49.476;11.016;2022-07-17T07:22:22;99208.03;;;20.84;39.04
21300;BME280;10809;49.476;11.016;2022-07-17T07:24:53;99213.53;;;20.93;38.74
21300;BME280;10809;49.476;11.016;2022-07-17T07:27:23;99217.19;;;21.03;38.47
21300;BME280;10809;49.476;11.016;2022-07-17T07:29:53;99218.88;;;21.15;38.58
21300;BME280;10809;49.476;11.016;2022-07-17T07:32:24;99215.16;;;21.27;38.08
21300;BME280;10809;49.476;11.016;2022-07-17T07:34:54;99214.09;;;21.39;37.79
21300;BME280;10809;49.476;11.016;2022-07-17T07:37:24;99214.13;;;21.49;38.05
21300;BME280;10809;49.476;11.016;2022-07-17T07:39:55;99207.97;;;21.58;37.75
21300;BME280;10809;49.476;11.016;2022-07-17T07:42:26;99199.00;;;21.69;37.84
21300;BME280;10809;49.476;11.016;2022-07-17T07:44:56;99204.44;;;21.78;37.83
21300;BME280;10809;49.476;11.016;2022-07-17T07:47:26;99196.53;;;21.86;37.73
21300;BME280;10809;49.476;11.016;2022-07-17T07:49:57;99197.69;;;21.93;37.43
21300;BME280;10809;49.476;11.016;2022-07-17T07:52:27;99192.63;;;22.00;36.87
21300;BME280;10809;49.476;11.016;2022-07-17T07:54:57;99187.53;;;22.06;37.09
21300;BME280;10809;49.476;11.016;2022-07-17T07:57:28;99194.22;;;22.12;36.83
21300;BME280;10809;49.476;11.016;2022-07-17T08:00:03;99188.16;;;22.19;36.88
21300;BME280;10809;49.476;11.016;2022-07-17T08:02:42;99183.06;;;22.26;36.87
21300;BME280;10809;49.476;11.016;2022-07-17T08:05:13;99182.41;;;22.33;37.08
21300;BME280;10809;49.476;11.016;2022-07-17T08:07:43;99184.28;;;22.42;36.79
21300;BME280;10809;49.476;11.016;2022-07-17T08:10:13;99175.50;;;22.50;36.31
21300;BME280;10809;49.476;11.016;2022-07-17T08:12:44;99176.63;;;22.57;36.03
21300;BME280;10809;49.476;11.016;2022-07-17T08:15:16;99188.47;;;22.65;36.48
21300;BME280;10809;49.476;11.016;2022-07-17T08:17:49;99198.28;;;22.76;35.91
21300;BME280;10809;49.476;11.016;2022-07-17T08:20:22;99199.84;;;22.88;36.54
21300;BME280;10809;49.476;11.016;2022-07-17T08:22:53;99195.19;;;22.99;36.47
21300;BME280;10809;49.476;11.016;2022-07-17T08:25:23;99193.91;;;23.13;35.71
21300;BME280;10809;49.476;11.016;2022-07-17T08:27:54;99199.91;;;23.26;35.15
21300;BME280;10809;49.476;11.016;2022-07-17T08:30:24;99189.91;;;23.36;34.33
21300;BME280;10809;49.476;11.016;2022-07-17T08:32:58;99192.78;;;23.44;34.71
21300;BME280;10809;49.476;11.016;2022-07-17T08:35:31;99198.31;;;23.52;34.00
21300;BME280;10809;49.476;11.016;2022-07-17T08:38:02;99203.13;;;23.58;33.47
21300;BME280;10809;49.476;11.016;2022-07-17T08:40:37;99206.28;;;23.63;34.18
21300;BME280;10809;49.476;11.016;2022-07-17T08:43:09;99204.84;;;23.69;33.74
21300;BME280;10809;49.476;11.016;2022-07-17T08:45:43;99206.13;;;23.74;34.14
21300;BME280;10809;49.476;11.016;2022-07-17T08:48:15;99199.28;;;23.80;33.52
21300;BME280;10809;49.476;11.016;2022-07-17T08:50:47;99197.84;;;23.85;33.55
21300;BME280;10809;49.476;11.016;2022-07-17T08:53:20;99200.97;;;23.90;33.23
21300;BME280;10809;49.476;11.016;2022-07-17T08:55:50;99201.50;;;23.94;33.14
21300;BME280;10809;49.476;11.016;2022-07-17T08:58:21;99193.22;;;23.95;33.10
21300;BME280;10809;49.476;11.016;2022-07-17T09:00:55;99181.97;;;24.00;33.32
21300;BME280;10809;49.476;11.016;2022-07-17T09:03:25;99185.25;;;24.03;32.72
21300;BME280;10809;49.476;11.016;2022-07-17T09:05:55;99193.91;;;24.07;31.90
21300;BME280;10809;49.476;11.016;2022-07-17T09:08:26;99183.09;;;24.07;32.08
21300;BME280;10809;49.476;11.016;2022-07-17T09:10:59;99183.09;;;24.07;32.01
21300;BME280;10809;49.476;11.016;2022-07-17T09:13:33;99179.22;;;24.09;32.24
21300;BME280;10809;49.476;11.016;2022-07-17T09:16:08;99187.03;;;24.12;32.39
21300;BME280;10809;49.476;11.016;2022-07-17T09:18:45;99184.03;;;24.15;32.51
21300;BME280;10809;49.476;11.016;2022-07-17T09:21:26;99177.31;;;24.19;32.56
21300;BME280;10809;49.476;11.016;2022-07-17T09:24:00;99180.44;;;24.24;32.56
21300;BME280;10809;49.476;11.016;2022-07-17T09:26:33;99172.63;;;24.31;32.49
21300;BME280;10809;49.476;11.016;2022-07-17T09:29:04;99171.84;;;24.38;32.74
21300;BME280;10809;49.476;11.016;2022-07-17T09:31:40;99164.66;;;24.47;32.16
21300;BME280;10809;49.476;11.016;2022-07-17T09:34:18;99166.63;;;24.54;32.16
21300;BME280;10809;49.476;11.016;2022-07-17T09:37:01;99167.00;;;24.59;31.93
21300;BME280;10809;49.476;11.016;2022-07-17T09:39:36;99165.69;;;24.63;31.71
21300;BME280;10809;49.476;11.016;2022-07-17T09:42:07;99161.84;;;24.66;31.03
21300;BME280;10809;49.476;11.016;2022-07-17T09:44:41;99157.97;;;24.68;30.93
21300;BME280;10809;49.476;11.016;2022-07-17T09:47:11;99158.69;;;24.70;30.70
21300;BME280;10809;49.476;11.016;2022-07-17T09:49:42;99163.78;;;24.73;30.72
21300;BME280;10809;49.476;11.016;2022-07-17T09:52:19;99162.47;;;24.77;31.30
21300;BME280;10809;49.476;11.016;2022-07-17T09:54:52;99168.44;;;24.81;30.37
21300;BME280;10809;49.476;11.016;2022-07-17T09:57:26;99164.56;;;24.83;30.09
21300;BME280;10809;49.476;11.016;2022-07-17T10:00:06;99158.16;;;24.85;30.89
21300;BME280;10809;49.476;11.016;2022-07-17T10:02:45;99160.59;;;24.88;30.39
21300;BME280;10809;49.476;11.016;2022-07-17T10:05:18;99167.53;;;24.90;30.66
21300;BME280;10809;49.476;11.016;2022-07-17T10:07:48;99162.69;;;24.94;29.85
21300;BME280;10809;49.476;11.016;2022-07-17T10:10:19;99168.63;;;24.97;29.45
21300;BME280;10809;49.476;11.016;2022-07-17T10:12:50;99163.75;;;25.01;29.76
21300;BME280;10809;49.476;11.016;2022-07-17T10:15:24;99165.44;;;25.02;29.77
21300;BME280;10809;49.476;11.016;2022-07-17T10:18:06;99160.03;;;25.02;29.89
21300;BME280;10809;49.476;11.016;2022-07-17T10:20:36;99162.72;;;25.02;29.36
21300;BME280;10809;49.476;11.016;2022-07-17T10:23:14;99161.75;;;25.03;29.95
21300;BME280;10809;49.476;11.016;2022-07-17T10:25:44;99163.44;;;25.04;29.54
21300;BME280;10809;49.476;11.016;2022-07-17T10:28:15;99156.00;;;25.06;29.21
21300;BME280;10809;49.476;11.016;2022-07-17T10:30:46;99147.72;;;25.07;28.95
21300;BME280;10809;49.476;11.016;2022-07-17T10:33:16;99135.88;;;25.08;28.67
21300;BME280;10809;49.476;11.016;2022-07-17T10:35:48;99145.84;;;25.08;28.54
21300;BME280;10809;49.476;11.016;2022-07-17T10:38:19;99152.28;;;25.07;28.05
21300;BME280;10809;49.476;11.016;2022-07-17T10:41:02;99154.28;;;25.05;28.34
21300;BME280;10809;49.476;11.016;2022-07-17T10:43:43;99155.31;;;25.04;28.42
21300;BME280;10809;49.476;11.016;2022-07-17T10:46:14;99150.91;;;25.03;28.21
21300;BME280;10809;49.476;11.016;2022-07-17T10:48:47;99147.03;;;25.05;28.40
21300;BME280;10809;49.476;11.016;2022-07-17T10:51:25;99150.13;;;25.10;27.98
21300;BME280;10809;49.476;11.016;2022-07-17T10:53:58;99145.91;;;25.16;27.74
21300;BME280;10809;49.476;11.016;2022-07-17T10:56:32;99147.16;;;25.21;27.74
21300;BME280;10809;49.476;11.016;2022-07-17T10:59:08;99156.69;;;25.25;28.16
21300;BME280;10809;49.476;11.016;2022-07-17T11:01:39;99157.22;;;25.29;27.12
21300;BME280;10809;49.476;11.016;2022-07-17T11:04:09;99151.66;;;25.30;27.22
21300;BME280;10809;49.476;11.016;2022-07-17T11:06:39;99140.34;;;25.35;27.04
21300;BME280;10809;49.476;11.016;2022-07-17T11:09:13;99147.13;;;25.39;27.21
21300;BME280;10809;49.476;11.016;2022-07-17T11:11:51;99145.63;;;25.44;27.22
21300;BME280;10809;49.476;11.016;2022-07-17T11:14:26;99143.19;;;25.51;27.34
21300;BME280;10809;49.476;11.016;2022-07-17T11:16:58;99137.97;;;25.57;26.50
21300;BME280;10809;49.476;11.016;2022-07-17T11:19:37;99142.59;;;25.65;26.30
21300;BME280;10809;49.476;11.016;2022-07-17T11:22:10;99142.97;;;25.70;25.54
21300;BME280;10809;49.476;11.016;2022-07-17T11:24:44;99137.91;;;25.75;25.56
21300;BME280;10809;49.476;11.016;2022-07-17T11:27:22;99135.91;;;25.77;26.05
21300;BME280;10809;49.476;11.016;2022-07-17T11:29:55;99131.84;;;25.81;25.93
21300;BME280;10809;49.476;11.016;2022-07-17T11:32:37;99126.94;;;25.84;26.42
21300;BME280;10809;49.476;11.016;2022-07-17T11:35:16;99122.88;;;25.88;26.20
21300;BME280;10809;49.476;11.016;2022-07-17T11:37:50;99129.00;;;25.90;25.59
21300;BME280;10809;49.476;11.016;2022-07-17T11:40:20;99131.72;;;25.90;24.61
21300;BME280;10809;49.476;11.016;2022-07-17T11:43:01;99129.00;;;25.90;25.93
21300;BME280;10809;49.476;11.016;2022-07-17T11:45:37;99123.59;;;25.90;25.48
21300;BME280;10809;49.476;11.016;2022-07-17T11:48:10;99118.00;;;25.92;25.39
21300;BME280;10809;49.476;11.016;2022-07-17T11:50:40;99111.22;;;25.96;25.40
21300;BME280;10809;49.476;11.016;2022-07-17T11:53:10;99122.44;;;26.01;25.50
21300;BME280;10809;49.476;11.016;2022-07-17T11:55:41;99113.50;;;26.08;25.50
21300;BME280;10809;49.476;11.016;2022-07-17T11:58:11;99109.13;;;26.15;24.66
21300;BME280;10809;49.476;11.016;2022-07-17T12:00:42;99109.31;;;26.22;24.35
21300;BME280;10809;49.476;11.016;2022-07-17T12:03:13;99113.09;;;26.29;24.41
21300;BME280;10809;49.476;11.016;2022-07-17T12:05:43;99101.75;;;26.33;25.15
21300;BME280;10809;49.476;11.016;2022-07-17T12:08:19;99108.38;;;26.39;25.28
21300;BME280;10809;49.476;11.016;2022-07-17T12:11:06;99100.41;;;26.46;25.47
21300;BME280;10809;49.476;11.016;2022-07-17T12:13:46;99097.84;;;26.52;25.28
21300;BME280;10809;49.476;11.016;2022-07-17T12:16:21;99109.09;;;26.57;24.70
21300;BME280;10809;49.476;11.016;2022-07-17T12:19:10;99097.88;;;26.60;24.93
21300;BME280;10809;49.476;11.016;2022-07-17T12:22:02;99096.72;;;26.63;25.12
21300;BME280;10809;49.476;11.016;2022-07-17T12:24:37;99094.53;;;26.66;24.66
21300;BME280;10809;49.476;11.016;2022-07-17T12:27:09;99090.28;;;26.72;24.84
21300;BME280;10809;49.476;11.016;2022-07-17T12:29:41;99085.38;;;26.75;24.99
21300;BME280;10809;49.476;11.016;2022-07-17T12:32:17;99088.97;;;26.84;24.97
21300;BME280;10809;49.476;11.016;2022-07-17T12:34:48;99085.41;;;26.91;24.12
21300;BME280;10809;49.476;11.016;2022-07-17T12:37:20;99079.28;;;26.97;24.04
21300;BME280;10809;49.476;11.016;2022-07-17T12:39:51;99086.06;;;27.01;24.30
21300;BME280;10809;49.476;11.016;2022-07-17T12:42:22;99071.09;;;27.05;24.01
21300;BME280;10809;49.476;11.016;2022-07-17T12:44:52;99065.31;;;27.08;23.64
21300;BME280;10809;49.476;11.016;2022-07-17T12:47:22;99070.41;;;27.11;23.64
21300;BME280;10809;49.476;11.016;2022-07-17T12:49:53;99068.38;;;27.13;23.29
21300;BME280;10809;49.476;11.016;2022-07-17T12:52:23;99068.19;;;27.15;23.53
21300;BME280;10809;49.476;11.016;2022-07-17T12:54:54;99063.44;;;27.17;23.98
21300;BME280;10809;49.476;11.016;2022-07-17T12:57:24;99063.97;;;27.20;23.88
21300;BME280;10809;49.476;11.016;2022-07-17T12:59:54;99064.13;;;27.27;23.76
21300;BME280;10809;49.476;11.016;2022-07-17T13:02:25;99067.03;;;27.33;23.19
21300;BME280;10809;49.476;11.016;2022-07-17T13:04:55;99068.03;;;27.40;23.28
21300;BME280;10809;49.476;11.016;2022-07-17T13:07:26;99068.38;;;27.45;23.24
21300;BME280;10809;49.476;11.016;2022-07-17T13:09:56;99063.44;;;27.49;23.07
21300;BME280;10809;49.476;11.016;2022-07-17T13:12:30;99059.34;;;27.53;23.24
21300;BME280;10809;49.476;11.016;2022-07-17T13:15:00;99062.56;;;27.56;23.05